createdAt,value
2017-05-20T00:01:27.570Z,101099
2017-05-20T00:03:56.534Z,101117
2017-05-20T00:06:25.477Z,101113
2017-05-20T00:08:54.495Z,101131
2017-05-20T00:11:23.469Z,101138
2017-05-20T00:13:52.403Z,101144
2017-05-20T00:16:21.357Z,101152
2017-05-20T00:18:50.465Z,101164
2017-05-20T00:21:19.419Z,101174
2017-05-20T00:23:48.349Z,101174
2017-05-20T00:26:17.302Z,101188
2017-05-20T00:28:46.250Z,101197
2017-05-20T00:31:15.179Z,101195
2017-05-20T00:33:44.149Z,101199
2017-05-20T00:36:13.077Z,101183
2017-05-20T00:38:42.029Z,101165
2017-05-20T00:41:11.010Z,101151
2017-05-20T00:43:39.930Z,101147
2017-05-20T00:46:08.882Z,101161
2017-05-20T00:48:37.837Z,101156
2017-05-20T00:51:06.789Z,101152
2017-05-20T00:53:35.733Z,101153
2017-05-20T00:56:04.701Z,101146
2017-05-20T00:58:33.626Z,101151
2017-05-20T01:01:02.562Z,101155
2017-05-20T01:03:31.533Z,101145
2017-05-20T01:06:00.480Z,101140
2017-05-20T01:08:29.425Z,101141
2017-05-20T01:10:58.379Z,101125
2017-05-20T01:13:27.300Z,101132
2017-05-20T01:15:56.247Z,101134
2017-05-20T01:18:25.231Z,101130
2017-05-20T01:20:54.162Z,101143
2017-05-20T01:23:23.110Z,101139
2017-05-20T01:25:52.082Z,101173
2017-05-20T01:28:21.027Z,101188
2017-05-20T01:30:49.960Z,101191
2017-05-20T01:33:18.910Z,101206
2017-05-20T01:35:47.831Z,101211
2017-05-20T01:38:16.759Z,101205
2017-05-20T01:40:45.741Z,101211
2017-05-20T01:43:14.684Z,101209
2017-05-20T01:45:43.606Z,101204
2017-05-20T01:48:12.570Z,101193
2017-05-20T01:50:41.513Z,101184
2017-05-20T01:53:10.460Z,101189
2017-05-20T01:55:39.422Z,101205
2017-05-20T01:58:08.365Z,101206
2017-05-20T02:00:37.297Z,101202
2017-05-20T02:03:06.245Z,101199
2017-05-20T02:05:35.189Z,101217
2017-05-20T02:08:04.113Z,101227
2017-05-20T02:10:33.092Z,101244
2017-05-20T02:13:02.039Z,101254
2017-05-20T02:15:30.966Z,101258
2017-05-20T02:17:59.933Z,101258
2017-05-20T02:20:28.863Z,101270
2017-05-20T02:22:57.803Z,101263
2017-05-20T02:25:26.763Z,101271
2017-05-20T02:27:55.236Z,101289
2017-05-20T02:30:23.688Z,101297
2017-05-20T02:32:52.189Z,101289
2017-05-20T02:35:20.660Z,101279
2017-05-20T02:37:49.136Z,101283
2017-05-20T02:40:17.625Z,101284
2017-05-20T02:42:46.546Z,101285
2017-05-20T02:45:15.470Z,101283
2017-05-20T02:47:44.421Z,101273
2017-05-20T02:50:13.346Z,101277
2017-05-20T02:52:42.358Z,101273
2017-05-20T02:55:11.305Z,101270
2017-05-20T02:57:40.258Z,101272
2017-05-20T03:00:09.185Z,101276
2017-05-20T03:02:38.138Z,101277
2017-05-20T03:05:07.089Z,101287
2017-05-20T03:07:36.011Z,101300
2017-05-20T03:10:04.495Z,101311
2017-05-20T03:12:32.951Z,101312
2017-05-20T03:15:01.425Z,101306
2017-05-20T03:17:29.955Z,101301
2017-05-20T03:19:58.425Z,101293
2017-05-20T03:22:26.889Z,101280
2017-05-20T03:24:55.820Z,101279
2017-05-20T03:27:24.295Z,101275
2017-05-20T03:29:52.768Z,101282
2017-05-20T03:32:21.273Z,101283
2017-05-20T03:34:49.726Z,101275
2017-05-20T03:37:18.199Z,101266
2017-05-20T03:39:46.684Z,101285
2017-05-20T03:42:15.142Z,101307
2017-05-20T03:44:43.612Z,101317
2017-05-20T03:47:12.097Z,101317
2017-05-20T03:49:40.544Z,101313
2017-05-20T03:52:08.989Z,101309
2017-05-20T03:54:37.475Z,101314
2017-05-20T03:57:05.930Z,101319
2017-05-20T03:59:34.397Z,101324
2017-05-20T04:02:02.897Z,101332
2017-05-20T04:04:31.352Z,101327
2017-05-20T04:06:59.807Z,101333
2017-05-20T04:09:28.309Z,101336
2017-05-20T04:11:56.777Z,101343
2017-05-20T04:14:25.230Z,101337
2017-05-20T04:16:53.737Z,101336
2017-05-20T04:19:22.185Z,101328
2017-05-20T04:21:50.656Z,101337
2017-05-20T04:24:19.620Z,101344
2017-05-20T04:26:48.079Z,101334
2017-05-20T04:29:17.014Z,101333
2017-05-20T04:31:45.995Z,101349
2017-05-20T04:34:14.503Z,101360
2017-05-20T04:36:43.445Z,101373
2017-05-20T04:39:12.396Z,101381
2017-05-20T04:41:41.348Z,101381
2017-05-20T04:44:09.804Z,101378
2017-05-20T04:46:38.306Z,101379
2017-05-20T04:49:06.799Z,101379
2017-05-20T04:51:35.258Z,101385
2017-05-20T04:54:04.236Z,101384
2017-05-20T04:56:32.693Z,101387
2017-05-20T04:59:01.641Z,101399
2017-05-20T05:01:30.595Z,101405
2017-05-20T05:03:59.522Z,101412
2017-05-20T05:06:28.470Z,101415
2017-05-20T05:08:57.441Z,101406
2017-05-20T05:11:26.377Z,101417
2017-05-20T05:13:55.302Z,101413
2017-05-20T05:16:24.258Z,101421
2017-05-20T05:18:53.201Z,101429
2017-05-20T05:21:22.145Z,101425
2017-05-20T05:23:51.102Z,101423
2017-05-20T05:26:20.048Z,101428
2017-05-20T05:28:48.988Z,101438
2017-05-20T05:31:17.956Z,101441
2017-05-20T05:33:46.907Z,101444
2017-05-20T05:36:15.835Z,101450
2017-05-20T05:38:44.809Z,101459
2017-05-20T05:41:13.739Z,101456
2017-05-20T05:43:42.670Z,101457
2017-05-20T05:46:11.622Z,101461
2017-05-20T05:48:40.571Z,101468
2017-05-20T05:51:09.494Z,101469
2017-05-20T05:53:38.475Z,101466
2017-05-20T05:56:07.424Z,101475
2017-05-20T05:58:36.368Z,101473
2017-05-20T06:01:05.345Z,101472
2017-05-20T06:03:34.304Z,101479
2017-05-20T06:06:03.252Z,101473
2017-05-20T06:08:32.227Z,101481
2017-05-20T06:11:01.150Z,101490
2017-05-20T06:13:30.097Z,101490
2017-05-20T06:15:59.059Z,101494
2017-05-20T06:18:28.009Z,101496
2017-05-20T06:20:57.380Z,101496
2017-05-20T06:23:26.346Z,101500
2017-05-20T06:25:55.269Z,101503
2017-05-20T06:28:24.193Z,101505
2017-05-20T06:30:53.148Z,101505
2017-05-20T06:33:22.093Z,101511
2017-05-20T06:35:51.035Z,101517
2017-05-20T06:38:20.012Z,101514
2017-05-20T06:40:48.961Z,101510
2017-05-20T06:43:18.084Z,101527
2017-05-20T06:45:47.053Z,101517
2017-05-20T06:48:15.513Z,101530
2017-05-20T06:50:43.996Z,101533
2017-05-20T06:53:12.505Z,101539
2017-05-20T06:55:40.980Z,101547
2017-05-20T06:58:09.453Z,101546
2017-05-20T07:00:38.417Z,101543
2017-05-20T07:03:06.893Z,101545
2017-05-20T07:05:35.373Z,101542
2017-05-20T07:08:03.875Z,101549
2017-05-20T07:10:32.356Z,101560
2017-05-20T07:13:00.828Z,101552
2017-05-20T07:15:29.337Z,101565
2017-05-20T07:17:57.795Z,101558
2017-05-20T07:20:26.312Z,101562
2017-05-20T07:22:54.839Z,101562
2017-05-20T07:25:23.295Z,101559
2017-05-20T07:27:52.277Z,101573
2017-05-20T07:30:21.276Z,101577
2017-05-20T07:32:50.231Z,101574
2017-05-20T07:35:19.159Z,101585
2017-05-20T07:37:48.138Z,101580
2017-05-20T07:40:17.107Z,101593
2017-05-20T07:42:45.557Z,101595
2017-05-20T07:45:14.049Z,101593
2017-05-20T07:47:42.520Z,101594
2017-05-20T07:50:11.466Z,101601
2017-05-20T07:52:41.415Z,101616
2017-05-20T07:55:10.338Z,101599
2017-05-20T07:57:39.281Z,101608
2017-05-20T08:00:08.237Z,101606
2017-05-20T08:02:37.178Z,101615
2017-05-20T08:05:06.125Z,101615
2017-05-20T08:07:35.102Z,101618
2017-05-20T08:10:04.031Z,101620
2017-05-20T08:12:32.985Z,101624
2017-05-20T08:15:01.938Z,101624
2017-05-20T08:17:30.880Z,101627
2017-05-20T08:19:59.350Z,101629
2017-05-20T08:22:27.825Z,101632
2017-05-20T08:24:56.652Z,101634
2017-05-20T08:27:25.110Z,101640
2017-05-20T08:29:53.606Z,101642
2017-05-20T08:32:22.084Z,101646
2017-05-20T08:34:50.554Z,101645
2017-05-20T08:37:19.036Z,101657
2017-05-20T08:39:47.969Z,101652
2017-05-20T08:42:16.421Z,101655
2017-05-20T08:44:44.909Z,101650
2017-05-20T08:47:13.368Z,101652
2017-05-20T08:49:42.331Z,101667
2017-05-20T08:52:10.844Z,101663
2017-05-20T08:54:39.320Z,101669
2017-05-20T08:57:07.792Z,101681
2017-05-20T08:59:36.752Z,101673
2017-05-20T09:02:05.212Z,101674
2017-05-20T09:04:33.687Z,101674
2017-05-20T09:07:02.195Z,101674
2017-05-20T09:09:30.676Z,101676
2017-05-20T09:11:59.295Z,101691
2017-05-20T09:14:27.793Z,101691
2017-05-20T09:16:56.252Z,101686
2017-05-20T09:19:24.744Z,101689
2017-05-20T09:21:53.252Z,101700
2017-05-20T09:24:21.729Z,101713
2017-05-20T09:26:50.221Z,101707
2017-05-20T09:29:18.725Z,101714
2017-05-20T09:31:47.205Z,101717
2017-05-20T09:34:15.697Z,101715
2017-05-20T09:36:44.212Z,101718
2017-05-20T09:39:12.674Z,101723
2017-05-20T09:41:41.151Z,101736
2017-05-20T09:44:09.657Z,101727
2017-05-20T09:46:38.135Z,101727
2017-05-20T09:49:06.607Z,101729
2017-05-20T09:51:35.090Z,101728
2017-05-20T09:54:03.568Z,101740
2017-05-20T09:56:32.059Z,101749
2017-05-20T09:59:00.546Z,101745
2017-05-20T10:01:29.027Z,101741
2017-05-20T10:03:57.515Z,101745
2017-05-20T10:06:26.035Z,101756
2017-05-20T10:08:54.722Z,101758
2017-05-20T10:11:23.212Z,101750
2017-05-20T10:13:51.723Z,101757
2017-05-20T10:16:20.189Z,101768
2017-05-20T10:18:48.660Z,101764
2017-05-20T10:21:17.196Z,101771
2017-05-20T10:23:46.148Z,101772
2017-05-20T10:26:14.621Z,101790
2017-05-20T10:28:43.159Z,101785
2017-05-20T10:31:12.090Z,101794
2017-05-20T10:33:41.034Z,101795
2017-05-20T10:36:09.522Z,101800
2017-05-20T10:38:37.982Z,101806
2017-05-20T10:41:06.454Z,101790
2017-05-20T10:43:34.964Z,101794
2017-05-20T10:46:03.448Z,101799
2017-05-20T10:48:31.920Z,101791
2017-05-20T10:51:00.517Z,101790
2017-05-20T10:53:29.471Z,101791
2017-05-20T10:55:58.399Z,101794
2017-05-20T10:58:27.377Z,101790
2017-05-20T11:00:56.311Z,101798
2017-05-20T11:03:25.253Z,101788
2017-05-20T11:05:55.206Z,101801
2017-05-20T11:08:24.151Z,101810
2017-05-20T11:10:53.074Z,101813
2017-05-20T11:13:22.053Z,101822
2017-05-20T11:15:50.988Z,101814
2017-05-20T11:18:19.919Z,101804
2017-05-20T11:20:49.407Z,101820
2017-05-20T11:23:18.394Z,101822
2017-05-20T11:25:47.328Z,101833
2017-05-20T11:28:16.318Z,101830
2017-05-20T11:30:45.270Z,101830
2017-05-20T11:33:14.209Z,101837
2017-05-20T11:35:43.192Z,101841
2017-05-20T11:38:12.129Z,101818
2017-05-20T11:40:41.054Z,101825
2017-05-20T11:43:10.425Z,101837
2017-05-20T11:45:39.356Z,101849
2017-05-20T11:48:08.289Z,101847
2017-05-20T11:50:37.255Z,101849
2017-05-20T11:53:06.205Z,101858
2017-05-20T11:55:35.127Z,101871
2017-05-20T11:58:04.082Z,101858
2017-05-20T12:00:33.737Z,101860
2017-05-20T12:03:03.256Z,101862
2017-05-20T12:05:32.254Z,101849
2017-05-20T12:08:01.169Z,101864
2017-05-20T12:10:30.110Z,101861
2017-05-20T12:12:59.080Z,101874
2017-05-20T12:15:28.007Z,101869
2017-05-20T12:17:56.929Z,101874
2017-05-20T12:20:25.876Z,101869
2017-05-20T12:22:54.806Z,101877
2017-05-20T12:25:23.749Z,101880
2017-05-20T12:27:52.694Z,101883
2017-05-20T12:30:21.632Z,101884
2017-05-20T12:32:50.569Z,101886
2017-05-20T12:35:19.537Z,101886
2017-05-20T12:37:48.472Z,101885
2017-05-20T12:40:17.407Z,101883
2017-05-20T12:42:46.358Z,101892
2017-05-20T12:45:15.282Z,101892
2017-05-20T12:47:44.237Z,101902
2017-05-20T12:50:13.205Z,101905
2017-05-20T12:52:42.127Z,101900
2017-05-20T12:55:11.047Z,101901
2017-05-20T12:57:40.008Z,101908
2017-05-20T13:00:08.957Z,101913
2017-05-20T13:02:37.882Z,101917
2017-05-20T13:05:06.839Z,101905
2017-05-20T13:07:35.758Z,101920
2017-05-20T13:10:04.698Z,101927
2017-05-20T13:12:33.669Z,101911
2017-05-20T13:15:02.616Z,101919
2017-05-20T13:17:31.559Z,101917
2017-05-20T13:20:00.518Z,101921
2017-05-20T13:22:29.463Z,101923
2017-05-20T13:24:58.390Z,101926
2017-05-20T13:27:27.371Z,101925
2017-05-20T13:29:56.294Z,101931
2017-05-20T13:32:25.218Z,101932
2017-05-20T13:34:54.163Z,101926
2017-05-20T13:37:23.113Z,101928
2017-05-20T13:39:52.033Z,101924
2017-05-20T13:42:20.982Z,101930
2017-05-20T13:44:50.009Z,101926
2017-05-20T13:47:18.933Z,101934
2017-05-20T13:49:47.995Z,101933
2017-05-20T13:52:16.913Z,101937
2017-05-20T13:54:45.852Z,101935
2017-05-20T13:57:14.821Z,101947
2017-05-20T13:59:43.746Z,101945
2017-05-20T14:02:12.688Z,101941
2017-05-20T14:04:41.634Z,101943
2017-05-20T14:07:10.576Z,101953
2017-05-20T14:09:39.491Z,101949
2017-05-20T14:12:08.467Z,101951
2017-05-20T14:14:37.400Z,101948
2017-05-20T14:17:06.341Z,101952
2017-05-20T14:19:35.333Z,101953
2017-05-20T14:22:04.290Z,101952
2017-05-20T14:24:33.210Z,101964
2017-05-20T14:27:02.181Z,101957
2017-05-20T14:29:31.130Z,101963
2017-05-20T14:32:00.064Z,101958
2017-05-20T14:34:29.028Z,101968
2017-05-20T14:36:57.975Z,101968
2017-05-20T14:39:26.899Z,101970
2017-05-20T14:41:55.874Z,101972
2017-05-20T14:44:24.812Z,101966
2017-05-20T14:46:53.744Z,101966
2017-05-20T14:49:22.700Z,101976
2017-05-20T14:51:51.632Z,101968
2017-05-20T14:54:20.574Z,101974
2017-05-20T14:56:49.531Z,101976
2017-05-20T14:59:18.477Z,101969
2017-05-20T15:01:47.438Z,101976
2017-05-20T15:04:16.417Z,101976
2017-05-20T15:06:45.370Z,101984
2017-05-20T15:09:14.320Z,101981
2017-05-20T15:11:43.270Z,101982
2017-05-20T15:14:12.199Z,101984
2017-05-20T15:16:41.123Z,101985
2017-05-20T15:19:10.090Z,101989
2017-05-20T15:21:39.037Z,101989
2017-05-20T15:24:07.966Z,101997
2017-05-20T15:26:36.943Z,101997
2017-05-20T15:29:05.859Z,101993
2017-05-20T15:31:34.781Z,102001
2017-05-20T15:34:04.886Z,102001
2017-05-20T15:36:33.823Z,102004
2017-05-20T15:39:02.751Z,102013
2017-05-20T15:41:31.717Z,102015
2017-05-20T15:44:00.657Z,102017
2017-05-20T15:46:29.575Z,102016
2017-05-20T15:48:58.552Z,102024
2017-05-20T15:51:27.486Z,102026
2017-05-20T15:53:56.425Z,102025
2017-05-20T15:56:25.395Z,102022
2017-05-20T15:58:54.318Z,102029
2017-05-20T16:01:23.272Z,102030
2017-05-20T16:03:52.219Z,102029
2017-05-20T16:06:21.144Z,102036
2017-05-20T16:08:50.072Z,102033
2017-05-20T16:11:19.039Z,102025
2017-05-20T16:13:47.990Z,102037
2017-05-20T16:16:16.929Z,102032
2017-05-20T16:18:45.900Z,102029
2017-05-20T16:21:14.826Z,102029
2017-05-20T16:23:43.769Z,102026
2017-05-20T16:26:12.718Z,102034
2017-05-20T16:28:41.639Z,102038
2017-05-20T16:31:10.579Z,102032
2017-05-20T16:33:39.557Z,102039
2017-05-20T16:36:08.483Z,102044
2017-05-20T16:38:37.403Z,102044
2017-05-20T16:41:06.365Z,102042
2017-05-20T16:43:35.317Z,102051
2017-05-20T16:46:04.261Z,102045
2017-05-20T16:48:33.208Z,102057
2017-05-20T16:51:02.164Z,102049
2017-05-20T16:53:31.105Z,102059
2017-05-20T16:56:00.060Z,102060
2017-05-20T16:58:28.998Z,102070
2017-05-20T17:00:57.918Z,102072
2017-05-20T17:03:26.874Z,102069
2017-05-20T17:05:55.793Z,102072
2017-05-20T17:08:24.736Z,102075
2017-05-20T17:10:53.687Z,102079
2017-05-20T17:13:22.638Z,102078
2017-05-20T17:15:51.563Z,102073
2017-05-20T17:18:20.537Z,102088
2017-05-20T17:20:49.487Z,102087
2017-05-20T17:23:18.420Z,102093
2017-05-20T17:25:47.390Z,102097
2017-05-20T17:28:16.314Z,102096
2017-05-20T17:33:23.300Z,102107
2017-05-20T17:35:52.247Z,102092
2017-05-20T17:38:21.171Z,102097
2017-05-20T17:40:50.145Z,102105
2017-05-20T17:43:19.081Z,102103
2017-05-20T17:45:48.018Z,102114
2017-05-20T17:48:16.975Z,102112
2017-05-20T17:50:45.925Z,102105
2017-05-20T17:53:14.869Z,102107
2017-05-20T17:55:43.822Z,102111
2017-05-20T17:58:12.742Z,102114
2017-05-20T18:00:41.723Z,102115
2017-05-20T18:03:10.688Z,102107
2017-05-20T18:05:39.617Z,102113
2017-05-20T18:08:08.543Z,102121
2017-05-20T18:10:37.525Z,102111
2017-05-20T18:13:06.453Z,102119
2017-05-20T18:15:35.404Z,102129
2017-05-20T18:18:04.361Z,102131
2017-05-20T18:20:33.309Z,102132
2017-05-20T18:23:02.252Z,102136
2017-05-20T18:25:31.229Z,102138
2017-05-20T18:28:00.158Z,102131
2017-05-20T18:30:29.096Z,102136
2017-05-20T18:32:58.055Z,102140
2017-05-20T18:35:26.998Z,102135
2017-05-20T18:37:55.939Z,102141
2017-05-20T18:40:24.950Z,102131
2017-05-20T18:42:53.871Z,102136
2017-05-20T18:45:22.796Z,102141
2017-05-20T18:47:51.744Z,102138
2017-05-20T18:50:20.685Z,102143
2017-05-20T18:52:49.610Z,102150
2017-05-20T18:55:18.585Z,102138
2017-05-20T18:57:47.526Z,102137
2017-05-20T19:00:16.451Z,102146
2017-05-20T19:02:45.442Z,102146
2017-05-20T19:05:14.380Z,102158
2017-05-20T19:07:43.329Z,102154
2017-05-20T19:10:12.303Z,102155
2017-05-20T19:12:41.249Z,102163
2017-05-20T19:15:10.191Z,102161
2017-05-20T19:17:39.151Z,102171
2017-05-20T19:20:08.101Z,102175
2017-05-20T19:22:37.030Z,102169
2017-05-20T19:25:06.005Z,102175
2017-05-20T19:27:34.953Z,102175
2017-05-20T19:30:03.896Z,102184
2017-05-20T19:32:32.851Z,102186
2017-05-20T19:35:01.780Z,102191
2017-05-20T19:37:30.725Z,102195
2017-05-20T19:39:59.686Z,102196
2017-05-20T19:42:28.615Z,102198
2017-05-20T19:44:57.550Z,102210
2017-05-20T19:47:26.501Z,102215
2017-05-20T19:49:55.427Z,102223
2017-05-20T19:52:24.374Z,102221
2017-05-20T19:54:53.357Z,102221
2017-05-20T19:57:22.306Z,102237
2017-05-20T19:59:51.231Z,102234
2017-05-20T20:02:20.190Z,102248
2017-05-20T20:04:49.145Z,102249
2017-05-20T20:07:18.088Z,102258
2017-05-20T20:09:47.055Z,102246
2017-05-20T20:12:15.999Z,102252
2017-05-20T20:14:44.977Z,102260
2017-05-20T20:17:13.925Z,102274
2017-05-20T20:19:42.874Z,102267
2017-05-20T20:22:11.826Z,102270
2017-05-20T20:24:40.763Z,102268
2017-05-20T20:27:09.741Z,102267
2017-05-20T20:29:38.694Z,102267
2017-05-20T20:32:07.626Z,102259
2017-05-20T20:34:36.575Z,102277
2017-05-20T20:37:05.503Z,102282
2017-05-20T20:39:34.485Z,102285
2017-05-20T20:42:03.433Z,102292
2017-05-20T20:44:32.379Z,102282
2017-05-20T20:47:01.345Z,102284
2017-05-20T20:49:30.272Z,102279
2017-05-20T20:51:59.225Z,102288
2017-05-20T20:54:28.189Z,102296
2017-05-20T20:56:57.120Z,102297
2017-05-20T20:59:26.071Z,102304
2017-05-20T21:01:55.017Z,102303
2017-05-20T21:04:23.985Z,102300
2017-05-20T21:06:52.915Z,102305
2017-05-20T21:09:21.841Z,102298
2017-05-20T21:11:50.817Z,102300
2017-05-20T21:14:19.788Z,102307
2017-05-20T21:16:48.761Z,102308
2017-05-20T21:19:17.706Z,102303
2017-05-20T21:21:46.649Z,102305
2017-05-20T21:24:15.619Z,102300
2017-05-20T21:26:44.565Z,102302
2017-05-20T21:29:13.529Z,102310
2017-05-20T21:31:42.482Z,102310
2017-05-20T21:34:11.425Z,102304
2017-05-20T21:36:40.378Z,102304
2017-05-20T21:39:09.330Z,102311
2017-05-20T21:41:38.307Z,102302
2017-05-20T21:44:07.253Z,102308
2017-05-20T21:46:36.197Z,102309
2017-05-20T21:49:05.142Z,102315
2017-05-20T21:51:34.093Z,102317
2017-05-20T21:54:03.066Z,102325
2017-05-20T21:56:32.013Z,102316
2017-05-20T21:59:00.941Z,102325
2017-05-20T22:01:29.999Z,102326
2017-05-20T22:03:58.948Z,102330
2017-05-20T22:06:27.910Z,102338
2017-05-20T22:08:56.855Z,102335
2017-05-20T22:11:25.836Z,102339
2017-05-20T22:13:54.813Z,102340
2017-05-20T22:16:23.760Z,102336
2017-05-20T22:18:52.714Z,102339
2017-05-20T22:21:21.639Z,102340
2017-05-20T22:23:50.579Z,102343
2017-05-20T22:26:19.552Z,102344
2017-05-20T22:28:48.521Z,102351
2017-05-20T22:31:17.489Z,102354
2017-05-20T22:33:46.427Z,102357
2017-05-20T22:36:15.387Z,102362
2017-05-20T22:38:44.358Z,102361
2017-05-20T22:41:13.325Z,102363
2017-05-20T22:43:42.272Z,102366
2017-05-20T22:46:11.260Z,102362
2017-05-20T22:48:40.225Z,102365
2017-05-20T22:51:09.171Z,102362
2017-05-20T22:53:38.157Z,102371
2017-05-20T22:56:07.124Z,102360
2017-05-20T22:58:36.062Z,102371
2017-05-20T23:01:05.027Z,102366
2017-05-20T23:03:33.979Z,102367
2017-05-20T23:06:02.925Z,102369
2017-05-20T23:08:31.899Z,102369
2017-05-20T23:11:00.887Z,102367
2017-05-20T23:13:29.815Z,102368
2017-05-20T23:15:58.769Z,102370
2017-05-20T23:18:27.713Z,102376
2017-05-20T23:20:56.662Z,102382
2017-05-20T23:23:25.620Z,102375
2017-05-20T23:25:54.554Z,102385
2017-05-20T23:28:23.478Z,102377
2017-05-20T23:30:52.444Z,102372
2017-05-20T23:33:21.390Z,102376
2017-05-20T23:35:50.315Z,102387
2017-05-20T23:38:19.272Z,102378
2017-05-20T23:40:48.226Z,102385
2017-05-20T23:43:17.172Z,102389
2017-05-20T23:45:46.178Z,102384
2017-05-20T23:48:15.120Z,102387
2017-05-20T23:50:44.040Z,102385
2017-05-20T23:53:13.017Z,102383
2017-05-20T23:55:41.966Z,102383
2017-05-20T23:58:10.893Z,102390
